Time;durP1;ratioP1;P1;durP2;ratioP2;P2;SDS_P1;SDS_P2;PMS_P1;PMS_P2;Temp;Humidity;BMP_temperature;BMP_pressure;BME280_temperature;BME280_humidity;BME280_pressure;Samples;Min_cycle;Max_cycle;Signal;HPM_P1;HPM_P2
2022/01/19 00:01:59;;;;;;;8.32;5.22;;;;;;;0.95;100.00;97267.09;5112672;28;24433;-77
2022/01/19 00:04:27;;;;;;;9.00;5.40;;;;;;;0.89;100.00;97265.41;5112328;28;24418;-78
2022/01/19 00:06:53;;;;;;;8.52;4.78;;;;;;;0.88;100.00;97255.19;5112134;28;24421;-77
2022/01/19 00:09:20;;;;;;;7.85;4.72;;;;;;;0.90;100.00;97249.25;5112353;28;24417;-77
2022/01/19 00:11:46;;;;;;;6.78;4.80;;;;;;;0.91;100.00;97245.84;5112835;28;24458;-76
2022/01/19 00:14:13;;;;;;;6.32;5.00;;;;;;;0.95;100.00;97237.34;5112478;28;24474;-77
2022/01/19 00:16:39;;;;;;;8.20;5.00;;;;;;;0.89;100.00;97226.28;5111995;28;24426;-77
2022/01/19 00:19:06;;;;;;;7.72;5.03;;;;;;;0.87;100.00;97226.28;5112535;28;24783;-77
2022/01/19 00:21:33;;;;;;;6.82;5.30;;;;;;;0.80;100.00;97224.59;5112048;28;24414;-77
2022/01/19 00:24:00;;;;;;;6.07;4.65;;;;;;;0.77;100.00;97226.31;5111969;28;24420;-77
2022/01/19 00:26:26;;;;;;;7.78;5.40;;;;;;;0.93;100.00;97220.34;5111982;28;24418;-77
2022/01/19 00:28:53;;;;;;;7.90;5.70;;;;;;;0.90;100.00;97228.84;5111885;28;24481;-75
2022/01/19 00:31:19;;;;;;;6.95;5.30;;;;;;;0.76;100.00;97235.66;5111667;28;24981;-76
2022/01/19 00:33:45;;;;;;;6.30;4.25;;;;;;;0.58;100.00;97243.31;5112182;28;24443;-77
2022/01/19 00:36:12;;;;;;;7.28;4.88;;;;;;;0.53;100.00;97256.06;5111705;28;24428;-77
2022/01/19 00:38:40;;;;;;;7.38;4.53;;;;;;;0.47;100.00;97266.25;5112005;28;24417;-77
2022/01/19 00:41:06;;;;;;;7.82;4.22;;;;;;;0.40;100.00;97265.38;5111824;28;24428;-77
2022/01/19 00:43:35;;;;;;;6.15;3.83;;;;;;;0.33;100.00;97250.94;5112763;28;24428;-76
2022/01/19 00:46:02;;;;;;;5.00;4.07;;;;;;;0.33;100.00;97250.09;5115733;28;24974;-77
2022/01/19 00:48:29;;;;;;;4.80;3.45;;;;;;;0.27;100.00;97245.00;5116110;28;24969;-78
2022/01/19 00:50:56;;;;;;;6.25;4.30;;;;;;;0.08;100.00;97237.34;5115804;28;24482;-77
2022/01/19 00:53:22;;;;;;;6.03;4.30;;;;;;;0.16;100.00;97225.44;5116048;28;24453;-77
2022/01/19 00:55:50;;;;;;;5.45;4.07;;;;;;;0.12;100.00;97228.84;5115881;28;24790;-77
2022/01/19 00:58:17;;;;;;;4.28;3.85;;;;;;;0.13;100.00;97227.16;5115797;28;25022;-77
2022/01/19 01:00:43;;;;;;;5.35;4.30;;;;;;;0.10;100.00;97227.97;5115619;28;25028;-77
2022/01/19 01:03:10;;;;;;;4.65;3.95;;;;;;;0.14;100.00;97231.38;5115783;28;24471;-76
2022/01/19 01:05:38;;;;;;;4.28;3.50;;;;;;;0.16;100.00;97233.09;5115207;28;24421;-77
2022/01/19 01:08:05;;;;;;;4.72;2.85;;;;;;;0.22;100.00;97238.22;5115827;28;24458;-77
2022/01/19 01:10:40;;;;;;;3.33;3.00;;;;;;;0.20;100.00;97232.25;5115166;28;24433;-77
2022/01/19 01:13:21;;;;;;;3.88;2.70;;;;;;;0.37;100.00;97233.94;5115447;28;25009;-77
2022/01/19 01:15:49;;;;;;;4.20;2.90;;;;;;;0.17;100.00;97224.59;5114842;28;24467;-77
2022/01/19 01:18:20;;;;;;;6.77;3.43;;;;;;;0.08;100.00;97216.13;5115447;28;24829;-77
2022/01/19 01:20:50;;;;;;;6.40;4.30;;;;;;;0.07;100.00;97215.22;5115430;28;24530;-76
2022/01/19 01:23:17;;;;;;;6.10;3.45;;;;;;;0.21;100.00;97212.72;5115457;28;25111;-77
2022/01/19 01:25:44;;;;;;;5.38;3.90;;;;;;;-0.05;100.00;97189.75;5114889;28;24417;-77
2022/01/19 01:28:13;;;;;;;4.97;3.90;;;;;;;-0.12;100.00;97195.69;5115023;28;24422;-76
2022/01/19 01:30:40;;;;;;;6.90;4.80;;;;;;;-0.27;100.00;97186.31;5114796;28;24482;-77
2022/01/19 01:33:07;;;;;;;6.47;4.60;;;;;;;-0.26;100.00;97178.69;5114893;28;24444;-77
2022/01/19 01:35:34;;;;;;;8.68;6.00;;;;;;;-0.29;100.00;97188.88;5115372;28;24429;-77
2022/01/19 01:38:00;;;;;;;8.68;6.40;;;;;;;-0.26;100.00;97193.97;5115099;28;24420;-77
2022/01/19 01:40:28;;;;;;;11.52;6.25;;;;;;;-0.27;100.00;97199.88;5114723;28;24425;-75
2022/01/19 01:42:56;;;;;;;12.88;6.85;;;;;;;-0.11;100.00;97208.44;5115008;28;24421;-77
2022/01/19 01:45:28;;;;;;;10.57;6.10;;;;;;;-0.17;100.00;97202.47;5114742;28;24953;-77
2022/01/19 01:48:03;;;;;;;9.43;5.97;;;;;;;-0.24;100.00;97196.50;5114836;28;24420;-77
2022/01/19 01:53:26;;;;;;;10.73;6.72;;;;;;;-0.16;100.00;97183.78;5113425;28;25095;-76
2022/01/19 01:55:55;;;;;;;8.65;6.68;;;;;;;-0.14;100.00;97169.38;5113195;28;24525;-76
2022/01/19 01:58:21;;;;;;;7.45;6.03;;;;;;;-0.14;100.00;97164.28;5114299;28;24471;-75
2022/01/19 02:00:49;;;;;;;9.35;7.93;;;;;;;-0.09;100.00;97163.44;5113232;28;24421;-76
2022/01/19 02:03:16;;;;;;;10.32;6.85;;;;;;;0.19;100.00;97143.09;5113356;28;24771;-76
2022/01/19 02:05:56;;;;;;;9.48;7.20;;;;;;;0.12;100.00;97132.03;5113038;28;24942;-77
2022/01/19 02:08:24;;;;;;;9.25;7.47;;;;;;;0.29;100.00;97126.94;5114681;28;24962;-77
2022/01/19 02:11:05;;;;;;;10.18;8.07;;;;;;;-0.02;100.00;97126.94;5114568;28;24534;-77
2022/01/19 02:16:25;;;;;;;10.23;7.40;;;;;;;-0.13;100.00;97109.97;5114278;28;24893;-77
2022/01/19 02:21:39;;;;;;;13.15;8.68;;;;;;;0.00;100.00;97104.03;5114494;28;24504;-77
2022/01/19 02:24:08;;;;;;;9.73;7.97;;;;;;;-0.17;100.00;97101.47;5114732;28;24422;-77
2022/01/19 02:26:49;;;;;;;10.10;7.95;;;;;;;-0.31;100.00;97082.78;5113727;28;25045;-77
2022/01/19 02:29:27;;;;;;;11.52;8.07;;;;;;;-0.20;100.00;97085.34;5114667;28;24430;-77
2022/01/19 02:36:35;;;;;;;11.57;8.45;;;;;;;-0.13;100.00;97079.41;5113700;28;24958;-77
2022/01/19 02:40:15;;;;;;;11.82;8.88;;;;;;;-0.56;100.00;97076.81;5112515;28;24501;-76
2022/01/19 02:42:55;;;;;;;11.75;9.10;;;;;;;-0.66;100.00;97070.03;5112817;28;24426;-76
2022/01/19 02:50:51;;;;;;;10.43;8.55;;;;;;;-0.67;100.00;97050.50;5112311;28;24466;-76
2022/01/19 02:53:19;;;;;;;11.63;8.52;;;;;;;-0.56;100.00;97042.03;5112513;28;24441;-76
2022/01/19 02:55:46;;;;;;;11.40;8.43;;;;;;;-0.60;100.00;97031.84;5112863;28;24420;-76
2022/01/19 02:58:17;;;;;;;10.90;8.38;;;;;;;-0.32;100.00;97038.66;5113583;28;24522;-77
2022/01/19 03:08:42;;;;;;;10.40;8.40;;;;;;;-0.44;100.00;97022.56;5111594;28;24985;-76
2022/01/19 03:09:17;;;;;;;11.83;8.63;;;;;;;-0.61;100.00;97022.53;5111766;28;24587;-76
2022/01/19 03:11:44;;;;;;;9.32;8.25;;;;;;;-0.80;100.00;97021.66;5111884;28;25000;-76
2022/01/19 03:14:12;;;;;;;15.82;9.00;;;;;;;-0.98;100.00;97017.38;5112049;28;24776;-77
2022/01/19 03:16:38;;;;;;;12.07;8.50;;;;;;;-1.01;100.00;97012.28;5111894;28;24425;-76
2022/01/19 03:19:07;;;;;;;12.20;9.02;;;;;;;-1.04;100.00;97018.22;5112175;28;24474;-76
2022/01/19 03:21:33;;;;;;;11.15;9.27;;;;;;;-1.05;100.00;97021.59;5112243;28;24418;-77
2022/01/19 03:24:00;;;;;;;11.27;8.27;;;;;;;-0.96;100.00;97013.16;5112695;28;24499;-76
2022/01/19 03:26:28;;;;;;;10.50;8.32;;;;;;;-0.91;100.00;97015.69;5112544;28;24462;-76
2022/01/19 03:28:55;;;;;;;11.68;8.68;;;;;;;-0.90;100.00;97005.50;5112093;28;24433;-76
2022/01/19 03:31:21;;;;;;;8.95;7.47;;;;;;;-0.83;100.00;97004.69;5111330;28;24494;-76
2022/01/19 03:33:48;;;;;;;13.50;8.90;;;;;;;-0.85;100.00;97006.38;5111487;28;25197;-76
2022/01/19 03:36:14;;;;;;;11.10;8.15;;;;;;;-0.88;100.00;97003.84;5111753;28;24436;-76
2022/01/19 03:38:41;;;;;;;10.30;7.55;;;;;;;-0.88;100.00;96998.75;5112640;28;24990;-77
2022/01/19 03:41:07;;;;;;;8.60;7.70;;;;;;;-0.81;100.00;97004.69;5111540;28;24478;-76
2022/01/19 03:43:35;;;;;;;11.70;8.38;;;;;;;-0.79;100.00;97008.06;5111346;28;24513;-76
2022/01/19 03:46:04;;;;;;;8.73;7.22;;;;;;;-0.82;100.00;96996.19;5111305;28;24471;-76
2022/01/19 03:48:37;;;;;;;10.00;7.67;;;;;;;-0.85;100.00;96998.75;5111214;28;24965;-76
2022/01/19 03:51:04;;;;;;;9.63;7.57;;;;;;;-0.85;100.00;96997.91;5111496;28;24437;-76
2022/01/19 03:53:31;;;;;;;14.18;8.10;;;;;;;-0.87;100.00;96992.81;5111301;28;24472;-76
2022/01/19 03:55:58;;;;;;;8.05;7.05;;;;;;;-0.88;100.00;96993.66;5111977;28;24420;-77
2022/01/19 03:58:25;;;;;;;8.38;7.45;;;;;;;-0.93;100.00;96990.25;5111525;28;24430;-76
2022/01/19 04:00:56;;;;;;;9.73;7.80;;;;;;;-1.24;100.00;96987.63;5111302;28;24429;-76
2022/01/19 04:03:31;;;;;;;11.45;8.20;;;;;;;-1.50;100.00;96984.16;5111396;28;24424;-76
2022/01/19 04:06:03;;;;;;;13.23;7.68;;;;;;;-1.61;100.00;96966.34;5111136;28;24513;-76
2022/01/19 04:08:29;;;;;;;8.57;7.60;;;;;;;-1.69;100.00;96972.25;5111343;28;24506;-77
2022/01/19 04:10:56;;;;;;;12.32;7.47;;;;;;;-1.78;100.00;96968.81;5110940;28;24434;-76
2022/01/19 04:13:30;;;;;;;11.25;7.38;;;;;;;-1.73;100.00;96973.91;5111198;28;24446;-76
2022/01/19 04:15:58;;;;;;;10.17;7.43;;;;;;;-1.88;100.00;96968.75;5110764;28;25027;-76
2022/01/19 04:18:25;;;;;;;11.98;7.72;;;;;;;-1.95;100.00;96958.56;5110517;28;24425;-75
2022/01/19 04:20:52;;;;;;;11.25;7.88;;;;;;;-1.92;100.00;96960.28;5111137;28;24424;-76
2022/01/19 04:23:22;;;;;;;9.75;8.75;;;;;;;-1.85;100.00;96953.56;5111149;28;24425;-76
2022/01/19 04:25:48;;;;;;;10.32;8.38;;;;;;;-1.66;100.00;96964.63;5110770;28;24508;-76
2022/01/19 04:28:15;;;;;;;10.77;8.65;;;;;;;-1.49;100.00;96947.75;5110985;28;24425;-76
2022/01/19 04:30:42;;;;;;;11.10;9.13;;;;;;;-1.40;100.00;96939.31;5110833;28;24445;-76
2022/01/19 04:33:13;;;;;;;12.48;9.35;;;;;;;-1.32;100.00;96953.75;5110796;28;24944;-76
2022/01/19 04:35:49;;;;;;;11.57;8.95;;;;;;;-1.29;100.00;96940.19;5110930;28;24413;-77
2022/01/19 05:03:23;;;;;;;12.18;9.48;;;;;;;-1.52;100.00;96902.00;5110574;28;24752;-76
2022/01/19 05:05:57;;;;;;;14.02;9.20;;;;;;;-1.77;100.00;96904.47;5110604;28;24427;-77
2022/01/19 05:08:42;;;;;;;11.38;8.40;;;;;;;-1.74;100.00;96901.13;5110614;28;24425;-76
2022/01/19 05:13:53;;;;;;;13.60;10.43;;;;;;;-1.82;100.00;96887.50;5110440;28;24989;-76
2022/01/19 05:16:20;;;;;;;11.82;10.32;;;;;;;-1.80;100.00;96889.22;5110203;28;24822;-77
2022/01/19 05:18:46;;;;;;;13.77;9.93;;;;;;;-1.79;100.00;96882.44;5110923;28;24950;-76
2022/01/19 05:21:14;;;;;;;11.45;9.10;;;;;;;-1.80;100.00;96876.53;5110312;28;25036;-76
2022/01/19 05:23:41;;;;;;;13.93;10.10;;;;;;;-1.98;100.00;96879.00;5110657;28;24422;-76
2022/01/19 05:26:08;;;;;;;11.80;9.35;;;;;;;-2.13;100.00;96871.31;5110315;28;24424;-77
2022/01/19 05:28:34;;;;;;;11.13;8.68;;;;;;;-2.24;100.00;96872.13;5110205;28;24817;-76
2022/01/19 05:31:00;;;;;;;12.82;9.30;;;;;;;-2.19;100.00;96869.59;5111553;28;24430;-76
2022/01/19 05:33:27;;;;;;;11.60;10.40;;;;;;;-2.20;100.00;96866.22;5118740;27;24453;-76
2022/01/19 05:35:53;;;;;;;13.23;9.88;;;;;;;-2.28;100.00;96862.81;5117020;27;24985;-77
2022/01/19 05:38:21;;;;;;;12.30;9.33;;;;;;;-2.24;100.00;96864.50;5134532;27;24490;-76
2022/01/19 05:40:48;;;;;;;14.10;9.90;;;;;;;-2.18;100.00;96860.31;5134256;27;24430;-76
2022/01/19 05:43:14;;;;;;;14.13;10.13;;;;;;;-2.21;100.00;96851.00;5134810;27;24448;-77
2022/01/19 05:45:41;;;;;;;12.98;10.63;;;;;;;-2.22;100.00;96842.53;5134577;27;25042;-76
2022/01/19 05:48:07;;;;;;;14.38;11.30;;;;;;;-2.26;100.00;96837.44;5134510;27;24428;-77
2022/01/19 05:50:34;;;;;;;15.07;11.18;;;;;;;-2.09;100.00;96840.88;5134176;27;24518;-76
2022/01/19 05:53:00;;;;;;;13.93;10.83;;;;;;;-2.12;100.00;96842.56;5133733;27;25000;-76
2022/01/19 05:55:28;;;;;;;15.27;10.98;;;;;;;-2.06;100.00;96842.59;5133189;27;24831;-75
2022/01/19 05:57:55;;;;;;;16.90;11.18;;;;;;;-2.08;100.00;96850.19;5113759;27;24441;-76
2022/01/19 06:00:21;;;;;;;13.02;10.05;;;;;;;-2.07;100.00;96851.91;5113514;27;24511;-76
2022/01/19 06:02:48;;;;;;;12.00;10.68;;;;;;;-2.03;100.00;96856.16;5113579;28;24476;-77
2022/01/19 06:05:14;;;;;;;15.95;11.32;;;;;;;-2.04;100.00;96851.91;5111967;28;24461;-77
2022/01/19 06:07:43;;;;;;;14.68;9.73;;;;;;;-2.05;100.00;96855.28;5113334;28;24418;-77
2022/01/19 06:10:42;;;;;;;14.02;11.23;;;;;;;-2.06;100.00;96853.59;5130395;27;24486;-76
2022/01/19 06:13:01;;;;;;;14.48;11.18;;;;;;;-2.09;100.00;96852.72;5133512;27;24470;-77
2022/01/19 06:15:27;;;;;;;14.27;11.40;;;;;;;-2.15;100.00;96851.03;5120786;27;24518;-77
2022/01/19 06:17:54;;;;;;;13.18;11.77;;;;;;;-2.05;100.00;96854.44;5113133;28;24437;-77
2022/01/19 06:20:20;;;;;;;14.35;11.95;;;;;;;-1.99;100.00;96852.78;5113316;28;24445;-77
2022/01/19 06:22:47;;;;;;;16.25;12.52;;;;;;;-1.94;100.00;96850.25;5113654;28;24421;-77
2022/01/19 06:25:13;;;;;;;19.83;11.30;;;;;;;-1.93;100.00;96848.53;5130813;27;24437;-77
2022/01/19 06:27:39;;;;;;;18.63;12.63;;;;;;;-1.96;100.00;96835.00;5133563;27;24473;-77
2022/01/19 06:30:09;;;;;;;16.33;12.30;;;;;;;-2.01;100.00;96831.59;5133949;27;24424;-77
2022/01/19 06:32:35;;;;;;;21.45;12.73;;;;;;;-1.88;100.00;96832.50;5125445;27;24457;-78
2022/01/19 06:35:01;;;;;;;18.27;12.48;;;;;;;-1.85;100.00;96837.59;5126669;27;24456;-76
2022/01/19 06:37:28;;;;;;;13.40;11.50;;;;;;;-1.89;100.00;96842.63;5134336;27;24427;-77
2022/01/19 06:39:54;;;;;;;15.32;12.73;;;;;;;-1.81;100.00;96836.75;5134617;27;24964;-77
2022/01/19 06:42:21;;;;;;;14.32;11.95;;;;;;;-1.86;100.00;96838.41;5134600;27;24968;-77
2022/01/19 06:44:47;;;;;;;17.55;13.38;;;;;;;-1.77;100.00;96828.28;5135266;27;24954;-76
2022/01/19 06:47:15;;;;;;;17.30;12.45;;;;;;;-1.76;100.00;96832.53;5135170;27;24485;-77
2022/01/19 06:49:41;;;;;;;14.95;13.00;;;;;;;-1.77;100.00;96830.84;5134026;27;24778;-77
2022/01/19 06:52:08;;;;;;;16.20;12.98;;;;;;;-1.85;100.00;96829.97;5133455;27;24444;-76
2022/01/19 06:54:35;;;;;;;14.38;12.43;;;;;;;-1.83;100.00;96828.28;5127493;27;24807;-78
2022/01/19 06:57:01;;;;;;;20.00;13.90;;;;;;;-1.84;100.00;96821.50;5116125;27;24448;-78
2022/01/19 06:59:28;;;;;;;18.47;12.63;;;;;;;-1.69;100.00;96820.69;5135090;27;25064;-76
2022/01/19 07:01:54;;;;;;;20.63;12.82;;;;;;;-1.77;100.00;96819.84;5134149;27;24429;-77
2022/01/19 07:04:22;;;;;;;15.40;12.13;;;;;;;-1.62;100.00;96809.69;5133518;27;24482;-77
2022/01/19 07:06:49;;;;;;;19.10;15.43;;;;;;;-1.75;100.00;96815.59;5132826;27;24433;-77
2022/01/19 07:09:15;;;;;;;20.13;14.85;;;;;;;-1.67;100.00;96815.59;5132992;27;24440;-78
2022/01/19 07:11:41;;;;;;;15.30;13.57;;;;;;;-1.63;100.00;96815.63;5133635;27;24424;-77
2022/01/19 07:14:12;;;;;;;16.40;14.18;;;;;;;-1.60;100.00;96822.38;5132870;27;24437;-76
2022/01/19 07:16:39;;;;;;;16.10;13.43;;;;;;;-1.58;100.00;96815.63;5132197;27;24783;-76
2022/01/19 07:19:05;;;;;;;18.92;15.48;;;;;;;-1.55;100.00;96808.88;5132701;27;24436;-76
2022/01/19 07:21:33;;;;;;;18.27;15.38;;;;;;;-1.55;100.00;96813.94;5132524;27;24484;-76
2022/01/19 07:23:59;;;;;;;22.33;15.73;;;;;;;-1.56;100.00;96816.47;5132264;27;24429;-78
2022/01/19 07:26:26;;;;;;;17.88;14.95;;;;;;;-1.59;100.00;96822.41;5133500;27;24421;-77
2022/01/19 07:28:52;;;;;;;21.17;16.58;;;;;;;-1.61;100.00;96820.69;5133375;27;24424;-77
2022/01/19 07:31:19;;;;;;;16.63;13.63;;;;;;;-1.40;100.00;96825.81;5132201;27;24494;-75
2022/01/19 07:33:46;;;;;;;15.75;13.68;;;;;;;-1.48;100.00;96823.28;5133225;27;24460;-77
2022/01/19 07:36:12;;;;;;;20.23;13.55;;;;;;;-1.55;100.00;96811.41;5132944;27;24440;-77
2022/01/19 07:38:40;;;;;;;15.77;12.52;;;;;;;-1.67;100.00;96810.53;5132477;27;24440;-77
2022/01/19 07:41:06;;;;;;;13.38;11.98;;;;;;;-1.66;100.00;96814.78;5122616;27;24432;-78
2022/01/19 07:43:33;;;;;;;14.90;12.50;;;;;;;-1.57;100.00;96812.25;5122566;27;24758;-77
2022/01/19 07:45:59;;;;;;;21.38;12.05;;;;;;;-1.53;100.00;96804.63;5121819;27;24803;-77
2022/01/19 07:48:26;;;;;;;14.70;12.90;;;;;;;-1.39;100.00;96806.34;5130711;27;24842;-78
2022/01/19 07:50:53;;;;;;;15.07;12.43;;;;;;;-1.38;100.00;96803.78;5121018;27;24445;-77
2022/01/19 07:53:19;;;;;;;15.73;12.70;;;;;;;-1.41;100.00;96808.84;5120901;27;24520;-76
2022/01/19 07:55:49;;;;;;;13.95;11.95;;;;;;;-1.48;100.00;96805.47;5109168;28;24428;-79
2022/01/19 07:58:15;;;;;;;17.75;12.52;;;;;;;-1.56;100.00;96802.09;5113028;28;24425;-78
2022/01/19 08:00:42;;;;;;;15.17;12.73;;;;;;;-1.60;100.00;96800.38;5127866;27;24985;-77
2022/01/19 08:03:08;;;;;;;17.08;12.40;;;;;;;-1.54;100.00;96797.84;5132467;27;24528;-78
2022/01/19 08:05:35;;;;;;;17.90;12.70;;;;;;;-1.35;100.00;96811.41;5119883;27;24425;-78
2022/01/19 08:08:02;;;;;;;17.10;14.80;;;;;;;-1.46;100.00;96808.84;5113286;27;24426;-77
2022/01/19 08:10:30;;;;;;;15.52;13.00;;;;;;;-1.41;100.00;96801.22;5109259;28;24529;-76
2022/01/19 08:13:02;;;;;;;20.67;13.82;;;;;;;-1.40;100.00;96797.88;5110920;28;24779;-78
2022/01/19 08:15:29;;;;;;;18.67;15.32;;;;;;;-1.40;100.00;96794.47;5111448;28;24520;-81
2022/01/19 08:17:56;;;;;;;16.02;12.95;;;;;;;-1.47;100.00;96803.78;5112879;28;24420;-77
2022/01/19 08:20:23;;;;;;;17.20;12.63;;;;;;;-1.56;100.00;96799.56;5123866;28;24434;-77
2022/01/19 08:22:49;;;;;;;15.25;12.95;;;;;;;-1.53;100.00;96801.22;5126967;28;24429;-76
2022/01/19 08:25:16;;;;;;;17.38;13.90;;;;;;;-1.43;100.00;96805.47;5110884;28;24421;-77
2022/01/19 08:27:42;;;;;;;18.63;13.60;;;;;;;-1.36;100.00;96817.34;5110752;28;24429;-76
2022/01/19 08:30:13;;;;;;;17.77;14.63;;;;;;;-1.18;100.00;96805.50;5111107;28;24472;-80
2022/01/19 08:32:39;;;;;;;15.02;13.50;;;;;;;-1.05;100.00;96800.38;5113928;28;24433;-79
2022/01/19 08:35:08;;;;;;;27.45;20.55;;;;;;;-1.00;100.00;96792.78;5112864;28;24473;-81
2022/01/19 08:37:35;;;;;;;18.00;15.88;;;;;;;-1.00;100.00;96796.16;5113438;28;24425;-79
2022/01/19 08:40:03;;;;;;;18.10;15.95;;;;;;;-0.93;100.00;96794.44;5110854;28;24491;-75
2022/01/19 08:42:30;;;;;;;23.30;14.38;;;;;;;-0.62;100.00;96794.41;5111019;28;24962;-77
2022/01/19 08:44:58;;;;;;;22.63;13.52;;;;;;;0.06;100.00;96794.97;5130917;28;24966;-75
2022/01/19 08:47:26;;;;;;;25.85;19.65;;;;;;;-0.01;100.00;96794.16;5133148;28;24425;-79
2022/01/19 08:49:52;;;;;;;19.60;14.90;;;;;;;-0.20;100.00;96784.91;5133375;28;24429;-80
2022/01/19 08:52:20;;;;;;;19.05;13.50;;;;;;;-0.37;100.00;96780.75;5133253;28;24462;-79
2022/01/19 08:54:47;;;;;;;16.30;13.68;;;;;;;-0.41;100.00;96780.75;5134995;28;25044;-76
2022/01/19 08:57:13;;;;;;;17.30;13.65;;;;;;;-0.57;100.00;96779.94;5132061;28;24425;-80
2022/01/19 08:59:40;;;;;;;17.73;15.93;;;;;;;-0.52;100.00;96780.78;5132728;28;24981;-76
2022/01/19 09:02:07;;;;;;;17.58;13.80;;;;;;;-0.37;100.00;96779.88;5132090;28;24474;-77
2022/01/19 09:04:34;;;;;;;18.27;14.05;;;;;;;-0.43;100.00;96782.47;5132019;27;25007;-76
2022/01/19 09:07:01;;;;;;;18.20;14.20;;;;;;;-0.30;100.00;96786.63;5135858;27;24417;-76
2022/01/19 09:09:28;;;;;;;16.80;13.38;;;;;;;-0.20;100.00;96784.91;5135905;27;24455;-77
2022/01/19 09:11:55;;;;;;;15.68;13.52;;;;;;;0.19;100.00;96787.25;5135741;27;24778;-76
2022/01/19 09:14:21;;;;;;;16.50;14.68;;;;;;;0.38;100.00;96776.94;5135787;27;24429;-76
2022/01/19 09:16:49;;;;;;;15.55;13.35;;;;;;;0.37;100.00;96777.78;5135780;27;24861;-76
2022/01/19 09:19:16;;;;;;;17.08;15.05;;;;;;;0.63;100.00;96781.03;5133553;27;24454;-76
2022/01/19 09:21:44;;;;;;;18.07;14.90;;;;;;;0.76;100.00;96779.22;5134967;27;24440;-77
2022/01/19 09:24:11;;;;;;;18.35;15.77;;;;;;;0.81;100.00;96779.16;5126935;27;24985;-75
2022/01/19 09:26:38;;;;;;;14.80;12.93;;;;;;;0.85;100.00;96773.16;5120367;27;24529;-77
2022/01/19 09:29:05;;;;;;;16.92;12.75;;;;;;;0.91;100.00;96776.53;5132268;27;24535;-76
2022/01/19 09:31:33;;;;;;;15.32;12.43;;;;;;;1.35;100.00;96771.84;5128463;27;24428;-76
2022/01/19 09:34:08;;;;;;;13.73;12.18;;;;;;;1.78;100.00;96764.56;5137365;27;24421;-76
2022/01/19 09:36:36;;;;;;;15.73;12.32;;;;;;;1.49;100.00;96770.00;5135680;27;24512;-73
2022/01/19 09:39:05;;;;;;;17.30;12.13;;;;;;;1.62;100.00;96763.03;5133089;27;24444;-77
2022/01/19 09:41:32;;;;;;;12.82;11.38;;;;;;;2.02;100.00;96760.00;5135286;27;25029;-76
2022/01/19 09:44:00;;;;;;;15.20;11.70;;;;;;;2.31;100.00;96765.53;5134233;27;24473;-76
2022/01/19 09:46:27;;;;;;;12.98;11.30;;;;;;;2.56;100.00;96757.50;5115227;27;24429;-77
2022/01/19 09:48:53;;;;;;;13.35;11.13;;;;;;;2.67;100.00;96755.63;5117162;28;24455;-77
2022/01/19 09:51:20;;;;;;;16.92;13.52;;;;;;;2.25;100.00;96762.22;5116919;28;24425;-78
2022/01/19 09:53:47;;;;;;;13.57;11.90;;;;;;;2.08;100.00;96755.66;5117361;28;24478;-78
2022/01/19 09:56:17;;;;;;;14.40;11.43;;;;;;;2.08;100.00;96749.69;5116783;28;24441;-76
2022/01/19 09:58:43;;;;;;;16.25;12.18;;;;;;;2.17;100.00;96757.22;5116647;28;24421;-75
2022/01/19 10:01:10;;;;;;;12.52;10.90;;;;;;;2.44;100.00;96755.97;5133147;27;24445;-76
2022/01/19 10:03:36;;;;;;;14.35;11.10;;;;;;;2.75;100.00;96745.28;5134895;27;24429;-76
2022/01/19 10:06:07;;;;;;;14.23;9.98;;;;;;;2.81;100.00;96735.75;5135611;27;24424;-78
2022/01/19 10:08:36;;;;;;;12.15;10.57;;;;;;;3.14;100.00;96736.06;5139804;27;24436;-78
2022/01/19 10:11:12;;;;;;;12.40;10.85;;;;;;;2.29;100.00;96733.19;5134001;27;24421;-75
2022/01/19 10:19:19;;;;;;;16.13;11.10;;;;;;;2.81;99.95;96706.78;5113451;28;24409;-76
2022/01/19 10:22:08;;;;;;;13.52;10.35;;;;;;;3.00;100.00;96702.19;5113563;28;24428;-76
2022/01/19 10:25:01;;;;;;;12.45;11.15;;;;;;;3.23;100.00;96691.53;5112612;27;24970;-76
2022/01/19 10:27:37;;;;;;;20.02;12.10;;;;;;;2.89;100.00;96682.78;5094865;28;24450;-78
2022/01/19 10:30:23;;;;;;;20.10;13.43;;;;;;;2.81;100.00;96665.84;5122656;27;24443;-77
2022/01/19 10:32:55;;;;;;;22.75;13.50;;;;;;;3.15;100.00;96660.94;5112793;28;24480;-76
2022/01/19 10:35:24;;;;;;;14.73;10.02;;;;;;;3.08;99.97;96664.53;5118983;27;25171;-77
2022/01/19 10:38:08;;;;;;;11.93;9.05;;;;;;;3.09;100.00;96655.97;5124599;27;24458;-75
2022/01/19 10:40:35;;;;;;;10.18;9.07;;;;;;;3.39;100.00;96649.38;5127229;27;24436;-76
2022/01/19 10:43:31;;;;;;;12.45;9.30;;;;;;;3.65;99.30;96648.84;5113863;27;24434;-76
2022/01/19 10:46:01;;;;;;;9.93;8.23;;;;;;;3.67;96.07;96652.22;5114323;28;24493;-77
2022/01/19 10:48:33;;;;;;;11.07;8.00;;;;;;;3.68;95.42;96647.94;5113897;28;24421;-77
2022/01/19 10:51:08;;;;;;;9.18;8.13;;;;;;;3.55;95.30;96645.63;5121118;27;24433;-77
2022/01/19 10:53:34;;;;;;;13.20;7.93;;;;;;;3.62;95.77;96644.63;5135711;27;24824;-78
2022/01/19 10:56:02;;;;;;;12.05;8.23;;;;;;;3.54;94.94;96645.66;5116674;27;24495;-78
2022/01/19 10:58:28;;;;;;;12.85;9.90;;;;;;;3.49;95.59;96638.09;5136397;27;24470;-78
2022/01/19 11:00:55;;;;;;;11.65;9.18;;;;;;;3.67;94.80;96644.53;5135161;27;24425;-79
2022/01/19 11:03:26;;;;;;;11.13;7.88;;;;;;;3.70;94.10;96643.59;5115929;28;24465;-77
2022/01/19 11:05:54;;;;;;;9.07;7.32;;;;;;;4.00;96.04;96634.38;5115345;28;24453;-79
2022/01/19 11:08:22;;;;;;;10.60;7.70;;;;;;;4.51;94.52;96634.88;5115825;27;24429;-78
2022/01/19 11:10:52;;;;;;;10.20;7.60;;;;;;;4.45;91.09;96631.59;5114095;28;24996;-78
2022/01/19 11:13:28;;;;;;;14.80;10.65;;;;;;;4.15;92.97;96634.03;5132550;27;24997;-78
2022/01/19 11:15:54;;;;;;;25.20;17.13;;;;;;;3.98;93.45;96631.88;5117643;27;24567;-78
2022/01/19 11:18:22;;;;;;;11.50;8.70;;;;;;;3.94;94.11;96630.25;5114852;28;24471;-78
2022/01/19 11:20:50;;;;;;;11.88;7.65;;;;;;;4.40;92.34;96624.03;5113944;28;24426;-78
2022/01/19 11:23:27;;;;;;;8.88;7.95;;;;;;;4.33;92.80;96620.75;5118998;27;24436;-78
2022/01/19 11:25:59;;;;;;;14.25;9.63;;;;;;;4.18;93.96;96608.31;5135850;27;24455;-78
2022/01/19 11:28:34;;;;;;;10.13;7.63;;;;;;;4.21;94.04;96599.72;5136330;27;24989;-78
2022/01/19 11:31:03;;;;;;;9.55;7.35;;;;;;;4.24;92.39;96604.78;5116868;27;25043;-78
2022/01/19 11:33:31;;;;;;;9.80;8.13;;;;;;;4.04;94.87;96605.25;5112599;28;24981;-75
2022/01/19 11:36:01;;;;;;;8.30;7.10;;;;;;;4.05;95.64;96602.66;5113179;28;24437;-78
2022/01/19 11:38:31;;;;;;;15.98;9.73;;;;;;;4.02;95.53;96591.63;5122392;27;24433;-77
2022/01/19 11:40:59;;;;;;;11.00;8.57;;;;;;;4.05;94.83;96589.00;5113512;28;24472;-79
2022/01/19 11:43:29;;;;;;;11.70;6.90;;;;;;;4.16;94.22;96581.06;5115690;28;24483;-74
2022/01/19 11:45:56;;;;;;;9.15;6.85;;;;;;;4.04;96.10;96595.00;5120593;27;24468;-78
2022/01/19 11:48:24;;;;;;;11.10;6.97;;;;;;;4.03;96.43;96591.59;5135578;27;24417;-78
2022/01/19 11:50:53;;;;;;;9.73;7.07;;;;;;;4.06;95.75;96588.97;5141155;27;24432;-79
2022/01/19 11:53:21;;;;;;;10.65;7.20;;;;;;;3.87;96.67;96591.13;5132054;27;24425;-78
2022/01/19 11:56:09;;;;;;;10.60;7.47;;;;;;;3.50;99.40;96593.66;5119157;28;24970;-79
2022/01/19 11:58:36;;;;;;;9.93;6.80;;;;;;;3.74;98.55;96593.97;5113387;28;25069;-78
2022/01/19 12:01:21;;;;;;;10.15;7.53;;;;;;;3.92;95.13;96582.47;5136572;27;24494;-79
2022/01/19 12:03:48;;;;;;;9.47;6.87;;;;;;;4.18;91.10;96580.13;5129670;27;24514;-78
2022/01/19 12:06:30;;;;;;;8.40;6.70;;;;;;;4.28;89.27;96583.31;5120080;28;24441;-78
2022/01/19 12:08:58;;;;;;;10.13;6.90;;;;;;;4.27;92.86;96579.06;5131777;27;24525;-78
2022/01/19 12:11:26;;;;;;;7.15;6.07;;;;;;;3.94;95.39;96576.44;5133721;27;24980;-78
2022/01/19 12:14:08;;;;;;;11.00;6.43;;;;;;;4.02;96.88;96568.56;5134608;27;25044;-78
2022/01/19 12:19:23;;;;;;;9.10;6.90;;;;;;;3.89;95.06;96570.56;5114850;28;24522;-78
2022/01/19 12:21:54;;;;;;;7.03;5.78;;;;;;;3.79;96.31;96572.53;5114426;28;24438;-79
2022/01/19 12:24:29;;;;;;;12.55;7.75;;;;;;;3.82;94.34;96567.34;5123143;28;24425;-78
2022/01/19 12:27:24;;;;;;;10.75;7.40;;;;;;;3.88;95.60;96562.03;5134904;28;24952;-78
2022/01/19 12:29:53;;;;;;;8.47;6.97;;;;;;;3.94;96.53;96560.22;5121506;28;24469;-78